sensor_id;sensor_type;location;lat;lon;timestamp;P1;durP1;ratioP1;P2;durP2;ratioP2
3066;SDS011;1544;48.834;9.194;2023-07-29T00:00:50;2.40;;;2.20;;
3066;SDS011;1544;48.834;9.194;2023-07-29T00:03:26;3.50;;;2.00;;
3066;SDS011;1544;48.834;9.194;2023-07-29T00:06:03;2.10;;;2.00;;
3066;SDS011;1544;48.834;9.194;2023-07-29T00:08:39;1.90;;;1.80;;
3066;SDS011;1544;48.834;9.194;2023-07-29T00:11:14;2.20;;;2.00;;
3066;SDS011;1544;48.834;9.194;2023-07-29T00:13:50;1.83;;;1.73;;
3066;SDS011;1544;48.834;9.194;2023-07-29T00:16:28;2.30;;;2.10;;
3066;SDS011;1544;48.834;9.194;2023-07-29T00:19:04;2.10;;;1.97;;
3066;SDS011;1544;48.834;9.194;2023-07-29T00:21:40;1.97;;;1.87;;
3066;SDS011;1544;48.834;9.194;2023-07-29T00:24:16;1.80;;;1.70;;
3066;SDS011;1544;48.834;9.194;2023-07-29T00:26:52;1.70;;;1.60;;
3066;SDS011;1544;48.834;9.194;2023-07-29T00:29:29;1.70;;;1.60;;
3066;SDS011;1544;48.834;9.194;2023-07-29T00:32:05;2.00;;;1.87;;
3066;SDS011;1544;48.834;9.194;2023-07-29T00:34:41;1.70;;;1.60;;
3066;SDS011;1544;48.834;9.194;2023-07-29T00:37:19;2.20;;;2.10;;
3066;SDS011;1544;48.834;9.194;2023-07-29T00:39:55;1.70;;;1.60;;
3066;SDS011;1544;48.834;9.194;2023-07-29T00:42:31;2.10;;;2.00;;
3066;SDS011;1544;48.834;9.194;2023-07-29T00:45:08;1.40;;;1.40;;
3066;SDS011;1544;48.834;9.194;2023-07-29T00:47:45;1.97;;;1.67;;
3066;SDS011;1544;48.834;9.194;2023-07-29T00:50:21;1.80;;;1.70;;
3066;SDS011;1544;48.834;9.194;2023-07-29T00:52:57;2.20;;;2.00;;
3066;SDS011;1544;48.834;9.194;2023-07-29T00:55:34;1.90;;;1.80;;
3066;SDS011;1544;48.834;9.194;2023-07-29T00:58:10;1.97;;;1.87;;
3066;SDS011;1544;48.834;9.194;2023-07-29T01:00:46;2.53;;;1.80;;
3066;SDS011;1544;48.834;9.194;2023-07-29T01:03:23;1.80;;;1.70;;
3066;SDS011;1544;48.834;9.194;2023-07-29T01:14:59;2.13;;;2.00;;
3066;SDS011;1544;48.834;9.194;2023-07-29T01:17:55;2.13;;;1.93;;
3066;SDS011;1544;48.834;9.194;2023-07-29T01:20:40;2.30;;;1.60;;
3066;SDS011;1544;48.834;9.194;2023-07-29T01:23:25;2.67;;;1.90;;
3066;SDS011;1544;48.834;9.194;2023-07-29T01:26:07;1.60;;;1.50;;
3066;SDS011;1544;48.834;9.194;2023-07-29T01:28:43;1.53;;;1.43;;
3066;SDS011;1544;48.834;9.194;2023-07-29T01:31:22;1.60;;;1.50;;
3066;SDS011;1544;48.834;9.194;2023-07-29T01:34:13;2.13;;;1.93;;
3066;SDS011;1544;48.834;9.194;2023-07-29T01:36:58;1.50;;;1.40;;
3066;SDS011;1544;48.834;9.194;2023-07-29T01:39:37;1.53;;;1.43;;
3066;SDS011;1544;48.834;9.194;2023-07-29T01:42:14;1.70;;;1.60;;
3066;SDS011;1544;48.834;9.194;2023-07-29T01:44:50;2.77;;;1.80;;
3066;SDS011;1544;48.834;9.194;2023-07-29T01:47:26;1.80;;;1.70;;
3066;SDS011;1544;48.834;9.194;2023-07-29T01:50:03;1.47;;;1.37;;
3066;SDS011;1544;48.834;9.194;2023-07-29T01:52:39;1.50;;;1.40;;
3066;SDS011;1544;48.834;9.194;2023-07-29T01:55:16;1.83;;;1.73;;
3066;SDS011;1544;48.834;9.194;2023-07-29T01:57:52;1.70;;;1.60;;
3066;SDS011;1544;48.834;9.194;2023-07-29T02:00:30;1.50;;;1.40;;
3066;SDS011;1544;48.834;9.194;2023-07-29T02:03:06;1.80;;;1.60;;
3066;SDS011;1544;48.834;9.194;2023-07-29T02:05:43;1.70;;;1.60;;
3066;SDS011;1544;48.834;9.194;2023-07-29T02:08:19;1.83;;;1.50;;
3066;SDS011;1544;48.834;9.194;2023-07-29T02:10:55;1.40;;;1.30;;
3066;SDS011;1544;48.834;9.194;2023-07-29T02:13:31;1.40;;;1.30;;
3066;SDS011;1544;48.834;9.194;2023-07-29T02:16:07;1.23;;;1.17;;
3066;SDS011;1544;48.834;9.194;2023-07-29T02:18:43;1.50;;;1.20;;
3066;SDS011;1544;48.834;9.194;2023-07-29T02:21:19;1.03;;;1.00;;
3066;SDS011;1544;48.834;9.194;2023-07-29T02:23:55;1.10;;;1.10;;
3066;SDS011;1544;48.834;9.194;2023-07-29T02:26:31;1.93;;;1.40;;
3066;SDS011;1544;48.834;9.194;2023-07-29T02:29:08;1.60;;;1.13;;
3066;SDS011;1544;48.834;9.194;2023-07-29T02:31:45;1.10;;;1.10;;
3066;SDS011;1544;48.834;9.194;2023-07-29T02:34:22;1.40;;;1.30;;
3066;SDS011;1544;48.834;9.194;2023-07-29T02:36:59;1.53;;;1.43;;
3066;SDS011;1544;48.834;9.194;2023-07-29T02:39:36;1.57;;;1.47;;
3066;SDS011;1544;48.834;9.194;2023-07-29T02:42:12;1.47;;;1.37;;
3066;SDS011;1544;48.834;9.194;2023-07-29T02:44:48;2.53;;;1.60;;
3066;SDS011;1544;48.834;9.194;2023-07-29T02:47:25;1.50;;;1.40;;
3066;SDS011;1544;48.834;9.194;2023-07-29T02:50:01;1.80;;;1.60;;
3066;SDS011;1544;48.834;9.194;2023-07-29T02:52:38;3.60;;;1.93;;
3066;SDS011;1544;48.834;9.194;2023-07-29T02:55:14;2.07;;;1.50;;
3066;SDS011;1544;48.834;9.194;2023-07-29T02:57:50;2.47;;;2.27;;
3066;SDS011;1544;48.834;9.194;2023-07-29T03:00:26;1.63;;;1.53;;
3066;SDS011;1544;48.834;9.194;2023-07-29T03:03:03;1.80;;;1.70;;
3066;SDS011;1544;48.834;9.194;2023-07-29T03:05:39;2.37;;;1.63;;
3066;SDS011;1544;48.834;9.194;2023-07-29T03:08:16;1.73;;;1.63;;
3066;SDS011;1544;48.834;9.194;2023-07-29T03:10:52;1.60;;;1.50;;
3066;SDS011;1544;48.834;9.194;2023-07-29T03:13:29;1.60;;;1.50;;
3066;SDS011;1544;48.834;9.194;2023-07-29T03:16:06;1.80;;;1.70;;
3066;SDS011;1544;48.834;9.194;2023-07-29T03:18:49;1.77;;;1.67;;
3066;SDS011;1544;48.834;9.194;2023-07-29T03:21:25;2.03;;;1.93;;
3066;SDS011;1544;48.834;9.194;2023-07-29T03:24:01;2.17;;;1.97;;
3066;SDS011;1544;48.834;9.194;2023-07-29T03:26:37;1.60;;;1.50;;
3066;SDS011;1544;48.834;9.194;2023-07-29T03:29:13;2.30;;;1.80;;
3066;SDS011;1544;48.834;9.194;2023-07-29T03:31:49;1.30;;;1.20;;
3066;SDS011;1544;48.834;9.194;2023-07-29T03:34:25;1.50;;;1.40;;
3066;SDS011;1544;48.834;9.194;2023-07-29T03:37:02;2.27;;;1.57;;
3066;SDS011;1544;48.834;9.194;2023-07-29T03:39:38;1.40;;;1.30;;
3066;SDS011;1544;48.834;9.194;2023-07-29T03:42:14;4.00;;;1.57;;
3066;SDS011;1544;48.834;9.194;2023-07-29T03:44:51;1.30;;;1.20;;
3066;SDS011;1544;48.834;9.194;2023-07-29T03:47:27;1.30;;;1.20;;
3066;SDS011;1544;48.834;9.194;2023-07-29T03:50:05;1.30;;;1.20;;
3066;SDS011;1544;48.834;9.194;2023-07-29T03:52:41;1.40;;;1.30;;
3066;SDS011;1544;48.834;9.194;2023-07-29T03:55:17;1.30;;;1.20;;
3066;SDS011;1544;48.834;9.194;2023-07-29T03:57:53;1.47;;;1.30;;
3066;SDS011;1544;48.834;9.194;2023-07-29T04:00:29;1.50;;;1.40;;
3066;SDS011;1544;48.834;9.194;2023-07-29T04:03:05;1.47;;;1.37;;
3066;SDS011;1544;48.834;9.194;2023-07-29T04:05:42;1.53;;;1.43;;
3066;SDS011;1544;48.834;9.194;2023-07-29T04:08:18;1.67;;;1.57;;
3066;SDS011;1544;48.834;9.194;2023-07-29T04:10:55;1.50;;;1.40;;
3066;SDS011;1544;48.834;9.194;2023-07-29T04:13:32;1.90;;;1.67;;
3066;SDS011;1544;48.834;9.194;2023-07-29T04:16:08;1.90;;;1.40;;
3066;SDS011;1544;48.834;9.194;2023-07-29T04:18:44;1.83;;;1.60;;
3066;SDS011;1544;48.834;9.194;2023-07-29T04:21:20;1.57;;;1.47;;
3066;SDS011;1544;48.834;9.194;2023-07-29T04:23:56;1.43;;;1.33;;
3066;SDS011;1544;48.834;9.194;2023-07-29T04:26:32;1.50;;;1.40;;
3066;SDS011;1544;48.834;9.194;2023-07-29T04:29:08;1.60;;;1.43;;
3066;SDS011;1544;48.834;9.194;2023-07-29T04:31:45;1.83;;;1.53;;
3066;SDS011;1544;48.834;9.194;2023-07-29T04:34:22;1.83;;;1.40;;
3066;SDS011;1544;48.834;9.194;2023-07-29T04:36:58;1.73;;;1.33;;
3066;SDS011;1544;48.834;9.194;2023-07-29T04:39:35;1.30;;;1.20;;
3066;SDS011;1544;48.834;9.194;2023-07-29T04:42:11;1.27;;;1.17;;
3066;SDS011;1544;48.834;9.194;2023-07-29T04:44:48;1.40;;;1.30;;
3066;SDS011;1544;48.834;9.194;2023-07-29T04:47:25;3.10;;;1.50;;
3066;SDS011;1544;48.834;9.194;2023-07-29T04:50:02;1.43;;;1.30;;
3066;SDS011;1544;48.834;9.194;2023-07-29T04:52:39;1.30;;;1.20;;
3066;SDS011;1544;48.834;9.194;2023-07-29T04:55:15;1.47;;;1.30;;
3066;SDS011;1544;48.834;9.194;2023-07-29T04:57:51;1.63;;;1.30;;
3066;SDS011;1544;48.834;9.194;2023-07-29T05:00:27;1.50;;;1.33;;
3066;SDS011;1544;48.834;9.194;2023-07-29T05:03:03;2.80;;;1.60;;
3066;SDS011;1544;48.834;9.194;2023-07-29T05:05:39;2.97;;;1.90;;
3066;SDS011;1544;48.834;9.194;2023-07-29T05:08:16;1.97;;;1.50;;
3066;SDS011;1544;48.834;9.194;2023-07-29T05:10:52;1.70;;;1.60;;
3066;SDS011;1544;48.834;9.194;2023-07-29T05:13:29;1.67;;;1.57;;
3066;SDS011;1544;48.834;9.194;2023-07-29T05:16:05;1.97;;;1.60;;
3066;SDS011;1544;48.834;9.194;2023-07-29T05:18:41;1.60;;;1.50;;
3066;SDS011;1544;48.834;9.194;2023-07-29T05:21:17;2.73;;;1.70;;
3066;SDS011;1544;48.834;9.194;2023-07-29T05:23:53;1.40;;;1.30;;
3066;SDS011;1544;48.834;9.194;2023-07-29T05:26:29;1.90;;;1.80;;
3066;SDS011;1544;48.834;9.194;2023-07-29T05:29:06;1.50;;;1.37;;
3066;SDS011;1544;48.834;9.194;2023-07-29T05:31:42;1.60;;;1.50;;
3066;SDS011;1544;48.834;9.194;2023-07-29T05:34:18;1.40;;;1.30;;
3066;SDS011;1544;48.834;9.194;2023-07-29T05:36:55;1.60;;;1.50;;
3066;SDS011;1544;48.834;9.194;2023-07-29T05:39:31;3.03;;;1.67;;
3066;SDS011;1544;48.834;9.194;2023-07-29T05:42:08;1.83;;;1.73;;
3066;SDS011;1544;48.834;9.194;2023-07-29T05:44:45;2.40;;;1.87;;
3066;SDS011;1544;48.834;9.194;2023-07-29T05:47:21;1.53;;;1.43;;
3066;SDS011;1544;48.834;9.194;2023-07-29T05:49:57;1.70;;;1.60;;
3066;SDS011;1544;48.834;9.194;2023-07-29T05:52:36;2.00;;;1.50;;
3066;SDS011;1544;48.834;9.194;2023-07-29T05:55:13;1.50;;;1.40;;
3066;SDS011;1544;48.834;9.194;2023-07-29T05:57:54;1.87;;;1.70;;
3066;SDS011;1544;48.834;9.194;2023-07-29T06:00:31;1.53;;;1.43;;
3066;SDS011;1544;48.834;9.194;2023-07-29T06:03:08;1.50;;;1.40;;
3066;SDS011;1544;48.834;9.194;2023-07-29T06:05:45;1.40;;;1.30;;
3066;SDS011;1544;48.834;9.194;2023-07-29T06:08:21;1.67;;;1.40;;
3066;SDS011;1544;48.834;9.194;2023-07-29T06:10:58;1.50;;;1.40;;
3066;SDS011;1544;48.834;9.194;2023-07-29T06:13:34;1.80;;;1.70;;
3066;SDS011;1544;48.834;9.194;2023-07-29T06:16:10;1.47;;;1.37;;
3066;SDS011;1544;48.834;9.194;2023-07-29T06:18:47;1.60;;;1.50;;
3066;SDS011;1544;48.834;9.194;2023-07-29T06:21:23;1.90;;;1.30;;
3066;SDS011;1544;48.834;9.194;2023-07-29T06:23:59;1.40;;;1.30;;
3066;SDS011;1544;48.834;9.194;2023-07-29T06:26:36;1.30;;;1.20;;
3066;SDS011;1544;48.834;9.194;2023-07-29T06:29:12;1.60;;;1.30;;
3066;SDS011;1544;48.834;9.194;2023-07-29T06:31:48;1.30;;;1.20;;
3066;SDS011;1544;48.834;9.194;2023-07-29T06:34:26;1.93;;;1.83;;
3066;SDS011;1544;48.834;9.194;2023-07-29T06:37:03;2.00;;;1.53;;
3066;SDS011;1544;48.834;9.194;2023-07-29T06:39:39;1.97;;;1.30;;
3066;SDS011;1544;48.834;9.194;2023-07-29T06:42:15;1.70;;;1.60;;
3066;SDS011;1544;48.834;9.194;2023-07-29T06:44:51;1.97;;;1.77;;
3066;SDS011;1544;48.834;9.194;2023-07-29T06:47:27;1.60;;;1.50;;
3066;SDS011;1544;48.834;9.194;2023-07-29T06:50:03;1.70;;;1.60;;
3066;SDS011;1544;48.834;9.194;2023-07-29T06:52:40;1.50;;;1.40;;
3066;SDS011;1544;48.834;9.194;2023-07-29T06:55:16;1.30;;;1.20;;
3066;SDS011;1544;48.834;9.194;2023-07-29T06:57:52;1.50;;;1.40;;
3066;SDS011;1544;48.834;9.194;2023-07-29T07:00:28;1.60;;;1.50;;
3066;SDS011;1544;48.834;9.194;2023-07-29T07:03:05;1.60;;;1.50;;
3066;SDS011;1544;48.834;9.194;2023-07-29T07:05:41;1.73;;;1.20;;
3066;SDS011;1544;48.834;9.194;2023-07-29T07:08:17;1.67;;;1.57;;
3066;SDS011;1544;48.834;9.194;2023-07-29T07:10:53;1.83;;;1.30;;
3066;SDS011;1544;48.834;9.194;2023-07-29T07:13:29;1.50;;;1.40;;
3066;SDS011;1544;48.834;9.194;2023-07-29T07:16:06;1.77;;;1.67;;
3066;SDS011;1544;48.834;9.194;2023-07-29T07:18:42;1.50;;;1.40;;
3066;SDS011;1544;48.834;9.194;2023-07-29T07:21:18;1.43;;;1.33;;
3066;SDS011;1544;48.834;9.194;2023-07-29T07:23:54;1.50;;;1.40;;
3066;SDS011;1544;48.834;9.194;2023-07-29T07:26:30;2.93;;;1.40;;
3066;SDS011;1544;48.834;9.194;2023-07-29T07:29:07;1.70;;;1.57;;
3066;SDS011;1544;48.834;9.194;2023-07-29T07:31:47;1.57;;;1.37;;
3066;SDS011;1544;48.834;9.194;2023-07-29T07:34:29;1.43;;;1.30;;
3066;SDS011;1544;48.834;9.194;2023-07-29T07:37:08;1.57;;;1.20;;
3066;SDS011;1544;48.834;9.194;2023-07-29T07:39:44;4.10;;;1.60;;
3066;SDS011;1544;48.834;9.194;2023-07-29T07:42:21;1.20;;;1.10;;
3066;SDS011;1544;48.834;9.194;2023-07-29T07:44:57;1.23;;;1.13;;
3066;SDS011;1544;48.834;9.194;2023-07-29T07:47:33;0.90;;;0.90;;
3066;SDS011;1544;48.834;9.194;2023-07-29T07:50:10;1.70;;;1.10;;
3066;SDS011;1544;48.834;9.194;2023-07-29T07:52:46;1.20;;;1.10;;
3066;SDS011;1544;48.834;9.194;2023-07-29T07:55:22;1.43;;;1.13;;
3066;SDS011;1544;48.834;9.194;2023-07-29T07:57:58;2.00;;;0.80;;
3066;SDS011;1544;48.834;9.194;2023-07-29T08:00:35;0.93;;;0.90;;
3066;SDS011;1544;48.834;9.194;2023-07-29T08:03:11;1.00;;;1.00;;
3066;SDS011;1544;48.834;9.194;2023-07-29T08:05:48;0.90;;;0.90;;
3066;SDS011;1544;48.834;9.194;2023-07-29T08:08:25;0.80;;;0.80;;
3066;SDS011;1544;48.834;9.194;2023-07-29T08:11:02;0.90;;;0.90;;
3066;SDS011;1544;48.834;9.194;2023-07-29T08:13:38;0.90;;;0.90;;
3066;SDS011;1544;48.834;9.194;2023-07-29T08:16:14;0.80;;;0.80;;
3066;SDS011;1544;48.834;9.194;2023-07-29T08:18:50;1.23;;;0.90;;
3066;SDS011;1544;48.834;9.194;2023-07-29T08:21:26;4.13;;;0.80;;
3066;SDS011;1544;48.834;9.194;2023-07-29T08:24:02;0.90;;;0.90;;
3066;SDS011;1544;48.834;9.194;2023-07-29T08:26:39;1.07;;;0.87;;
3066;SDS011;1544;48.834;9.194;2023-07-29T08:29:15;1.30;;;0.77;;
3066;SDS011;1544;48.834;9.194;2023-07-29T08:31:51;1.00;;;0.90;;
3066;SDS011;1544;48.834;9.194;2023-07-29T08:34:27;1.10;;;1.00;;
3066;SDS011;1544;48.834;9.194;2023-07-29T08:37:04;0.90;;;0.90;;
3066;SDS011;1544;48.834;9.194;2023-07-29T08:39:40;1.10;;;1.00;;
3066;SDS011;1544;48.834;9.194;2023-07-29T08:42:16;1.80;;;0.80;;
3066;SDS011;1544;48.834;9.194;2023-07-29T08:44:55;1.23;;;1.07;;
3066;SDS011;1544;48.834;9.194;2023-07-29T08:47:32;1.37;;;1.00;;
3066;SDS011;1544;48.834;9.194;2023-07-29T08:50:08;0.97;;;0.97;;
3066;SDS011;1544;48.834;9.194;2023-07-29T08:52:48;1.10;;;0.80;;
3066;SDS011;1544;48.834;9.194;2023-07-29T08:55:26;0.77;;;0.77;;
3066;SDS011;1544;48.834;9.194;2023-07-29T08:58:03;0.80;;;0.80;;
3066;SDS011;1544;48.834;9.194;2023-07-29T09:00:40;0.83;;;0.83;;
3066;SDS011;1544;48.834;9.194;2023-07-29T09:03:16;0.73;;;0.73;;
3066;SDS011;1544;48.834;9.194;2023-07-29T09:05:52;0.80;;;0.80;;
3066;SDS011;1544;48.834;9.194;2023-07-29T09:08:30;0.70;;;0.70;;
3066;SDS011;1544;48.834;9.194;2023-07-29T09:11:06;0.80;;;0.80;;
3066;SDS011;1544;48.834;9.194;2023-07-29T09:13:43;0.73;;;0.70;;
3066;SDS011;1544;48.834;9.194;2023-07-29T09:16:22;0.80;;;0.80;;
3066;SDS011;1544;48.834;9.194;2023-07-29T09:19:00;0.90;;;0.83;;
3066;SDS011;1544;48.834;9.194;2023-07-29T09:21:39;1.73;;;1.20;;
3066;SDS011;1544;48.834;9.194;2023-07-29T09:24:16;0.90;;;0.90;;
3066;SDS011;1544;48.834;9.194;2023-07-29T09:26:54;1.40;;;0.97;;
3066;SDS011;1544;48.834;9.194;2023-07-29T09:29:30;0.73;;;0.73;;
3066;SDS011;1544;48.834;9.194;2023-07-29T09:32:17;1.37;;;1.27;;
3066;SDS011;1544;48.834;9.194;2023-07-29T09:34:55;1.03;;;1.00;;
3066;SDS011;1544;48.834;9.194;2023-07-29T09:37:31;1.87;;;1.63;;
3066;SDS011;1544;48.834;9.194;2023-07-29T09:40:12;1.10;;;1.00;;
3066;SDS011;1544;48.834;9.194;2023-07-29T09:42:54;0.97;;;0.90;;
3066;SDS011;1544;48.834;9.194;2023-07-29T09:45:32;0.90;;;0.90;;
3066;SDS011;1544;48.834;9.194;2023-07-29T09:48:10;0.80;;;0.80;;
3066;SDS011;1544;48.834;9.194;2023-07-29T09:50:47;1.00;;;1.00;;
3066;SDS011;1544;48.834;9.194;2023-07-29T09:53:24;1.20;;;1.20;;
3066;SDS011;1544;48.834;9.194;2023-07-29T09:56:00;1.17;;;1.07;;
3066;SDS011;1544;48.834;9.194;2023-07-29T09:58:36;0.80;;;0.80;;
3066;SDS011;1544;48.834;9.194;2023-07-29T10:01:14;0.90;;;0.90;;
3066;SDS011;1544;48.834;9.194;2023-07-29T10:03:49;0.77;;;0.70;;
3066;SDS011;1544;48.834;9.194;2023-07-29T10:06:26;0.97;;;0.97;;
3066;SDS011;1544;48.834;9.194;2023-07-29T10:09:03;0.80;;;0.80;;
3066;SDS011;1544;48.834;9.194;2023-07-29T10:11:46;1.30;;;0.90;;
3066;SDS011;1544;48.834;9.194;2023-07-29T10:14:24;0.80;;;0.80;;
3066;SDS011;1544;48.834;9.194;2023-07-29T10:17:04;1.00;;;1.00;;
3066;SDS011;1544;48.834;9.194;2023-07-29T10:19:41;1.00;;;1.00;;
3066;SDS011;1544;48.834;9.194;2023-07-29T10:22:20;0.70;;;0.70;;
3066;SDS011;1544;48.834;9.194;2023-07-29T10:25:03;0.87;;;0.87;;
3066;SDS011;1544;48.834;9.194;2023-07-29T10:27:43;0.80;;;0.80;;
3066;SDS011;1544;48.834;9.194;2023-07-29T10:30:32;0.70;;;0.60;;
3066;SDS011;1544;48.834;9.194;2023-07-29T10:33:09;0.80;;;0.80;;
3066;SDS011;1544;48.834;9.194;2023-07-29T10:35:46;0.70;;;0.70;;
3066;SDS011;1544;48.834;9.194;2023-07-29T10:38:23;0.70;;;0.70;;
3066;SDS011;1544;48.834;9.194;2023-07-29T10:41:00;0.70;;;0.70;;
3066;SDS011;1544;48.834;9.194;2023-07-29T10:43:36;0.90;;;0.90;;
3066;SDS011;1544;48.834;9.194;2023-07-29T10:46:19;1.30;;;0.93;;
3066;SDS011;1544;48.834;9.194;2023-07-29T10:48:57;0.87;;;0.87;;
3066;SDS011;1544;48.834;9.194;2023-07-29T10:51:37;1.00;;;0.90;;
3066;SDS011;1544;48.834;9.194;2023-07-29T10:54:13;0.90;;;0.90;;
3066;SDS011;1544;48.834;9.194;2023-07-29T10:56:50;0.90;;;0.80;;
3066;SDS011;1544;48.834;9.194;2023-07-29T10:59:32;0.70;;;0.70;;
3066;SDS011;1544;48.834;9.194;2023-07-29T11:02:12;0.77;;;0.77;;
3066;SDS011;1544;48.834;9.194;2023-07-29T11:04:53;0.80;;;0.80;;
3066;SDS011;1544;48.834;9.194;2023-07-29T11:07:29;1.00;;;0.70;;
3066;SDS011;1544;48.834;9.194;2023-07-29T11:10:05;1.23;;;0.70;;
3066;SDS011;1544;48.834;9.194;2023-07-29T11:12:48;1.10;;;0.90;;
3066;SDS011;1544;48.834;9.194;2023-07-29T11:15:28;0.80;;;0.80;;
3066;SDS011;1544;48.834;9.194;2023-07-29T11:18:04;0.80;;;0.80;;
3066;SDS011;1544;48.834;9.194;2023-07-29T11:20:44;0.87;;;0.87;;
3066;SDS011;1544;48.834;9.194;2023-07-29T11:23:20;0.97;;;0.93;;
3066;SDS011;1544;48.834;9.194;2023-07-29T11:26:05;0.93;;;0.80;;
3066;SDS011;1544;48.834;9.194;2023-07-29T11:28:42;1.23;;;1.13;;
3066;SDS011;1544;48.834;9.194;2023-07-29T11:31:18;0.77;;;0.77;;
3066;SDS011;1544;48.834;9.194;2023-07-29T11:33:55;0.90;;;0.90;;
3066;SDS011;1544;48.834;9.194;2023-07-29T11:36:32;0.83;;;0.83;;
3066;SDS011;1544;48.834;9.194;2023-07-29T11:39:10;1.17;;;0.80;;
3066;SDS011;1544;48.834;9.194;2023-07-29T11:41:48;0.80;;;0.80;;
3066;SDS011;1544;48.834;9.194;2023-07-29T11:44:28;0.70;;;0.70;;
3066;SDS011;1544;48.834;9.194;2023-07-29T11:47:09;0.73;;;0.73;;
3066;SDS011;1544;48.834;9.194;2023-07-29T11:49:47;0.97;;;0.93;;
3066;SDS011;1544;48.834;9.194;2023-07-29T11:52:27;0.93;;;0.93;;
3066;SDS011;1544;48.834;9.194;2023-07-29T11:55:06;0.97;;;0.97;;
3066;SDS011;1544;48.834;9.194;2023-07-29T11:57:43;1.50;;;0.90;;
3066;SDS011;1544;48.834;9.194;2023-07-29T12:00:25;0.90;;;0.90;;
3066;SDS011;1544;48.834;9.194;2023-07-29T12:03:17;0.80;;;0.80;;
3066;SDS011;1544;48.834;9.194;2023-07-29T12:06:00;0.93;;;0.93;;
3066;SDS011;1544;48.834;9.194;2023-07-29T12:08:37;0.90;;;0.90;;
3066;SDS011;1544;48.834;9.194;2023-07-29T12:11:14;0.63;;;0.63;;
3066;SDS011;1544;48.834;9.194;2023-07-29T12:13:53;1.07;;;1.00;;
3066;SDS011;1544;48.834;9.194;2023-07-29T12:16:30;1.03;;;1.00;;
3066;SDS011;1544;48.834;9.194;2023-07-29T12:19:14;0.90;;;0.90;;
3066;SDS011;1544;48.834;9.194;2023-07-29T12:21:51;0.97;;;0.97;;
3066;SDS011;1544;48.834;9.194;2023-07-29T12:24:31;1.00;;;1.00;;
3066;SDS011;1544;48.834;9.194;2023-07-29T12:27:12;1.00;;;1.00;;
3066;SDS011;1544;48.834;9.194;2023-07-29T12:29:51;0.90;;;0.90;;
3066;SDS011;1544;48.834;9.194;2023-07-29T12:32:29;1.10;;;1.00;;
3066;SDS011;1544;48.834;9.194;2023-07-29T12:35:09;0.90;;;0.90;;
3066;SDS011;1544;48.834;9.194;2023-07-29T12:37:45;0.93;;;0.93;;
3066;SDS011;1544;48.834;9.194;2023-07-29T12:40:22;1.60;;;1.50;;
3066;SDS011;1544;48.834;9.194;2023-07-29T12:42:59;1.00;;;1.00;;
3066;SDS011;1544;48.834;9.194;2023-07-29T12:45:36;0.90;;;0.90;;
3066;SDS011;1544;48.834;9.194;2023-07-29T12:48:15;1.20;;;1.20;;
3066;SDS011;1544;48.834;9.194;2023-07-29T12:50:51;1.20;;;1.10;;
3066;SDS011;1544;48.834;9.194;2023-07-29T12:53:27;0.87;;;0.87;;
3066;SDS011;1544;48.834;9.194;2023-07-29T12:56:03;2.60;;;1.00;;
3066;SDS011;1544;48.834;9.194;2023-07-29T12:58:39;1.00;;;1.00;;
3066;SDS011;1544;48.834;9.194;2023-07-29T13:01:15;2.60;;;1.17;;
3066;SDS011;1544;48.834;9.194;2023-07-29T13:03:54;1.10;;;1.00;;
3066;SDS011;1544;48.834;9.194;2023-07-29T13:06:31;0.90;;;0.90;;
3066;SDS011;1544;48.834;9.194;2023-07-29T13:09:07;1.43;;;0.90;;
3066;SDS011;1544;48.834;9.194;2023-07-29T13:11:43;1.20;;;1.20;;
3066;SDS011;1544;48.834;9.194;2023-07-29T13:14:19;1.00;;;1.00;;
3066;SDS011;1544;48.834;9.194;2023-07-29T13:16:55;1.00;;;1.00;;
3066;SDS011;1544;48.834;9.194;2023-07-29T13:19:32;1.63;;;1.20;;
3066;SDS011;1544;48.834;9.194;2023-07-29T13:22:07;1.10;;;1.10;;
3066;SDS011;1544;48.834;9.194;2023-07-29T13:24:43;1.30;;;1.20;;
3066;SDS011;1544;48.834;9.194;2023-07-29T13:27:19;1.20;;;1.00;;
3066;SDS011;1544;48.834;9.194;2023-07-29T13:29:55;1.10;;;1.10;;
3066;SDS011;1544;48.834;9.194;2023-07-29T13:32:31;1.20;;;1.10;;
3066;SDS011;1544;48.834;9.194;2023-07-29T13:35:07;0.90;;;0.90;;
3066;SDS011;1544;48.834;9.194;2023-07-29T13:37:43;0.87;;;0.87;;
3066;SDS011;1544;48.834;9.194;2023-07-29T13:40:19;0.90;;;0.90;;
3066;SDS011;1544;48.834;9.194;2023-07-29T13:42:55;2.03;;;1.10;;
3066;SDS011;1544;48.834;9.194;2023-07-29T13:45:31;1.00;;;1.00;;
3066;SDS011;1544;48.834;9.194;2023-07-29T13:48:09;1.20;;;1.10;;
3066;SDS011;1544;48.834;9.194;2023-07-29T13:50:45;1.17;;;0.90;;
3066;SDS011;1544;48.834;9.194;2023-07-29T13:53:21;1.33;;;1.10;;
3066;SDS011;1544;48.834;9.194;2023-07-29T13:55:57;2.43;;;1.03;;
3066;SDS011;1544;48.834;9.194;2023-07-29T13:58:33;1.03;;;1.03;;
3066;SDS011;1544;48.834;9.194;2023-07-29T14:01:08;1.13;;;1.03;;
3066;SDS011;1544;48.834;9.194;2023-07-29T14:03:45;11.40;;;1.20;;
3066;SDS011;1544;48.834;9.194;2023-07-29T14:06:20;0.90;;;0.90;;
3066;SDS011;1544;48.834;9.194;2023-07-29T14:09:16;1.03;;;1.00;;
3066;SDS011;1544;48.834;9.194;2023-07-29T14:11:55;1.10;;;1.00;;
3066;SDS011;1544;48.834;9.194;2023-07-29T14:14:31;1.30;;;1.30;;
3066;SDS011;1544;48.834;9.194;2023-07-29T14:17:07;0.80;;;0.80;;
3066;SDS011;1544;48.834;9.194;2023-07-29T14:19:45;1.07;;;0.90;;
3066;SDS011;1544;48.834;9.194;2023-07-29T14:22:21;1.47;;;1.00;;
3066;SDS011;1544;48.834;9.194;2023-07-29T14:24:57;1.10;;;1.10;;
3066;SDS011;1544;48.834;9.194;2023-07-29T14:27:35;1.23;;;1.00;;
3066;SDS011;1544;48.834;9.194;2023-07-29T14:30:11;1.70;;;1.10;;
3066;SDS011;1544;48.834;9.194;2023-07-29T14:32:47;1.30;;;1.10;;
3066;SDS011;1544;48.834;9.194;2023-07-29T14:35:24;1.07;;;1.07;;
3066;SDS011;1544;48.834;9.194;2023-07-29T14:38:00;1.23;;;1.00;;
3066;SDS011;1544;48.834;9.194;2023-07-29T14:40:36;1.10;;;1.10;;
3066;SDS011;1544;48.834;9.194;2023-07-29T14:43:12;1.00;;;1.00;;
3066;SDS011;1544;48.834;9.194;2023-07-29T14:45:48;1.17;;;1.10;;
3066;SDS011;1544;48.834;9.194;2023-07-29T14:48:24;1.70;;;1.30;;
3066;SDS011;1544;48.834;9.194;2023-07-29T14:51:00;1.07;;;1.07;;
3066;SDS011;1544;48.834;9.194;2023-07-29T14:53:37;1.10;;;1.10;;
3066;SDS011;1544;48.834;9.194;2023-07-29T14:56:13;1.00;;;1.00;;
3066;SDS011;1544;48.834;9.194;2023-07-29T14:58:52;1.03;;;1.03;;
3066;SDS011;1544;48.834;9.194;2023-07-29T15:01:28;1.10;;;1.00;;
3066;SDS011;1544;48.834;9.194;2023-07-29T15:04:05;1.00;;;1.00;;
3066;SDS011;1544;48.834;9.194;2023-07-29T15:06:41;1.00;;;1.00;;
3066;SDS011;1544;48.834;9.194;2023-07-29T15:09:17;3.70;;;1.20;;
3066;SDS011;1544;48.834;9.194;2023-07-29T15:11:53;1.10;;;1.10;;
3066;SDS011;1544;48.834;9.194;2023-07-29T15:14:33;1.33;;;1.23;;
3066;SDS011;1544;48.834;9.194;2023-07-29T15:17:09;1.17;;;1.10;;
3066;SDS011;1544;48.834;9.194;2023-07-29T15:19:45;1.30;;;1.20;;
3066;SDS011;1544;48.834;9.194;2023-07-29T15:22:25;1.00;;;1.00;;
3066;SDS011;1544;48.834;9.194;2023-07-29T15:25:01;2.97;;;0.90;;
3066;SDS011;1544;48.834;9.194;2023-07-29T15:27:38;1.10;;;1.10;;
3066;SDS011;1544;48.834;9.194;2023-07-29T15:30:14;1.10;;;1.10;;
3066;SDS011;1544;48.834;9.194;2023-07-29T15:32:50;1.27;;;1.17;;
3066;SDS011;1544;48.834;9.194;2023-07-29T15:35:26;1.20;;;1.10;;
3066;SDS011;1544;48.834;9.194;2023-07-29T15:38:02;1.17;;;1.10;;
3066;SDS011;1544;48.834;9.194;2023-07-29T15:40:38;1.40;;;1.30;;
3066;SDS011;1544;48.834;9.194;2023-07-29T15:43:14;1.27;;;1.17;;
3066;SDS011;1544;48.834;9.194;2023-07-29T15:45:51;1.10;;;1.10;;
3066;SDS011;1544;48.834;9.194;2023-07-29T15:48:27;1.13;;;1.13;;
3066;SDS011;1544;48.834;9.194;2023-07-29T15:51:03;1.30;;;1.20;;
3066;SDS011;1544;48.834;9.194;2023-07-29T15:53:39;1.03;;;1.03;;
3066;SDS011;1544;48.834;9.194;2023-07-29T15:56:15;1.43;;;1.33;;
3066;SDS011;1544;48.834;9.194;2023-07-29T15:58:51;1.30;;;1.20;;
3066;SDS011;1544;48.834;9.194;2023-07-29T16:01:27;1.07;;;1.07;;
3066;SDS011;1544;48.834;9.194;2023-07-29T16:04:04;1.33;;;1.23;;
3066;SDS011;1544;48.834;9.194;2023-07-29T16:06:40;1.83;;;1.57;;
3066;SDS011;1544;48.834;9.194;2023-07-29T16:09:16;1.17;;;1.10;;
3066;SDS011;1544;48.834;9.194;2023-07-29T16:11:56;1.13;;;1.10;;
3066;SDS011;1544;48.834;9.194;2023-07-29T16:14:32;1.10;;;1.10;;
3066;SDS011;1544;48.834;9.194;2023-07-29T16:17:08;1.73;;;1.30;;
3066;SDS011;1544;48.834;9.194;2023-07-29T16:19:56;2.10;;;1.30;;
3066;SDS011;1544;48.834;9.194;2023-07-29T16:22:35;1.40;;;1.30;;
3066;SDS011;1544;48.834;9.194;2023-07-29T16:25:11;1.13;;;1.10;;